createdAt,value
2022-08-21T00:00:49.006Z,16.20
2022-08-21T00:03:17.913Z,16.20
2022-08-21T00:05:50.840Z,16.10
2022-08-21T00:08:19.764Z,16.10
2022-08-21T00:10:50.440Z,16.10
2022-08-21T00:13:20.747Z,16.10
2022-08-21T00:15:49.979Z,16.10
2022-08-21T00:18:18.975Z,16.10
2022-08-21T00:20:48.627Z,16.10
2022-08-21T00:23:17.480Z,16.10
2022-08-21T00:25:46.928Z,16.10
2022-08-21T00:28:17.541Z,16.10
2022-08-21T00:30:47.295Z,16.00
2022-08-21T00:33:15.951Z,16.00
2022-08-21T00:35:45.863Z,16.00
2022-08-21T00:38:15.509Z,16.00
2022-08-21T00:40:46.901Z,15.90
2022-08-21T00:43:19.299Z,15.90
2022-08-21T00:45:47.899Z,16.00
2022-08-21T00:48:16.539Z,16.00
2022-08-21T00:50:49.121Z,16.00
2022-08-21T00:53:18.577Z,16.00
2022-08-21T00:55:47.861Z,16.00
2022-08-21T00:58:21.954Z,16.10
2022-08-21T01:00:52.319Z,16.10
2022-08-21T01:03:23.978Z,16.10
2022-08-21T01:05:53.678Z,16.10
2022-08-21T01:08:23.181Z,16.10
2022-08-21T01:10:54.651Z,16.00
2022-08-21T01:13:31.652Z,16.10
2022-08-21T01:16:04.891Z,16.10
2022-08-21T01:18:33.432Z,16.00
2022-08-21T01:21:07.966Z,16.00
2022-08-21T01:23:37.522Z,16.00
2022-08-21T01:26:07.189Z,16.00
2022-08-21T01:28:40.560Z,16.00
2022-08-21T01:31:10.725Z,16.00
2022-08-21T01:33:39.457Z,16.10
2022-08-21T01:36:09.819Z,16.10
2022-08-21T01:38:38.457Z,16.00
2022-08-21T01:41:06.914Z,16.00
2022-08-21T01:43:39.684Z,16.00
2022-08-21T01:46:08.684Z,16.00
2022-08-21T01:48:37.987Z,16.00
2022-08-21T01:51:08.565Z,16.00
2022-08-21T01:53:38.344Z,16.00
2022-08-21T01:56:12.661Z,16.00
2022-08-21T01:58:42.503Z,16.00
2022-08-21T02:01:11.599Z,15.90
2022-08-21T02:03:41.819Z,15.90
2022-08-21T02:06:15.946Z,16.00
2022-08-21T02:08:44.440Z,16.00
2022-08-21T02:11:12.978Z,16.00
2022-08-21T02:13:41.661Z,16.00
2022-08-21T02:16:10.677Z,16.00
2022-08-21T02:18:39.406Z,16.00
2022-08-21T02:21:08.381Z,16.00
2022-08-21T02:23:38.543Z,16.10
2022-08-21T02:26:09.801Z,16.10
2022-08-21T02:28:40.957Z,16.10
2022-08-21T02:31:09.643Z,16.10
2022-08-21T02:33:38.203Z,16.10
2022-08-21T02:36:07.566Z,16.20
2022-08-21T02:38:39.947Z,16.20
2022-08-21T02:41:11.258Z,16.20
2022-08-21T02:43:39.673Z,16.20
2022-08-21T02:46:12.956Z,16.20
2022-08-21T02:48:41.806Z,16.20
2022-08-21T02:51:12.594Z,16.20
2022-08-21T02:53:43.495Z,16.20
2022-08-21T02:56:14.772Z,16.20
2022-08-21T02:58:46.860Z,16.20
2022-08-21T03:01:16.663Z,16.20
2022-08-21T03:03:47.350Z,16.10
2022-08-21T03:06:18.153Z,16.10
2022-08-21T03:08:48.298Z,16.00
2022-08-21T03:11:17.602Z,16.00
2022-08-21T03:13:46.218Z,15.90
2022-08-21T03:16:14.670Z,15.80
2022-08-21T03:18:43.249Z,15.80
2022-08-21T03:21:11.779Z,15.70
2022-08-21T03:23:40.847Z,15.70
2022-08-21T03:26:11.890Z,15.70
2022-08-21T03:28:40.497Z,15.70
2022-08-21T03:31:09.734Z,15.70
2022-08-21T03:33:38.267Z,15.70
2022-08-21T03:36:10.131Z,15.70
2022-08-21T03:38:39.606Z,15.70
2022-08-21T03:41:08.586Z,15.70
2022-08-21T03:43:39.631Z,15.70
2022-08-21T03:46:08.697Z,15.70
2022-08-21T03:48:38.647Z,15.70
2022-08-21T03:51:07.881Z,15.70
2022-08-21T03:53:37.064Z,15.80
2022-08-21T03:56:06.406Z,15.80
2022-08-21T03:58:35.430Z,15.80
2022-08-21T04:01:07.368Z,15.90
2022-08-21T04:03:42.214Z,16.00
2022-08-21T04:06:10.863Z,16.00
2022-08-21T04:08:39.369Z,16.00
2022-08-21T04:11:08.462Z,16.00
2022-08-21T04:13:40.267Z,16.10
2022-08-21T04:16:14.906Z,16.10
2022-08-21T04:18:44.074Z,16.20
2022-08-21T04:21:13.890Z,16.20
2022-08-21T04:23:42.574Z,16.30
2022-08-21T04:26:11.126Z,16.30
2022-08-21T04:28:39.547Z,16.30
2022-08-21T04:31:08.063Z,16.30
2022-08-21T04:33:38.053Z,16.30
2022-08-21T04:36:07.866Z,16.40
2022-08-21T04:38:37.705Z,16.40
2022-08-21T04:41:07.514Z,16.40
2022-08-21T04:43:36.774Z,16.30
2022-08-21T04:46:05.464Z,16.30
2022-08-21T04:48:34.929Z,16.30
2022-08-21T04:51:09.710Z,16.20
2022-08-21T04:53:41.689Z,16.20
2022-08-21T04:56:13.975Z,16.20
2022-08-21T04:58:43.373Z,16.20
2022-08-21T05:01:17.681Z,16.10
2022-08-21T05:03:47.575Z,16.10
2022-08-21T05:06:18.416Z,16.00
2022-08-21T05:08:49.645Z,15.90
2022-08-21T05:11:18.264Z,15.90
2022-08-21T05:13:46.721Z,15.90
2022-08-21T05:16:15.291Z,15.90
2022-08-21T05:19:03.737Z,16.00
2022-08-21T05:21:33.840Z,16.00
2022-08-21T05:24:02.856Z,16.00
2022-08-21T05:26:31.968Z,16.10
2022-08-21T05:29:01.107Z,16.20
2022-08-21T05:31:30.752Z,16.30
2022-08-21T05:33:59.304Z,16.40
2022-08-21T05:36:28.047Z,16.50
2022-08-21T05:38:58.153Z,16.60
2022-08-21T05:41:26.752Z,16.70
2022-08-21T05:43:55.378Z,16.70
2022-08-21T05:46:23.794Z,16.80
2022-08-21T05:48:52.292Z,16.80
2022-08-21T05:51:20.707Z,16.70
2022-08-21T05:53:49.516Z,16.70
2022-08-21T05:56:19.687Z,16.70
2022-08-21T05:58:48.241Z,16.70
2022-08-21T06:01:17.148Z,16.70
2022-08-21T06:03:45.647Z,16.70
2022-08-21T06:06:14.211Z,16.80
2022-08-21T06:08:42.860Z,16.80
2022-08-21T06:11:12.012Z,16.80
2022-08-21T06:13:42.754Z,16.90
2022-08-21T06:16:15.826Z,17.00
2022-08-21T06:18:45.566Z,17.10
2022-08-21T06:21:14.681Z,17.20
2022-08-21T06:23:43.744Z,17.30
2022-08-21T06:26:13.664Z,17.30
2022-08-21T06:28:44.355Z,17.40
2022-08-21T06:31:15.604Z,17.40
2022-08-21T06:33:44.323Z,17.40
2022-08-21T06:36:12.835Z,17.50
2022-08-21T06:38:41.891Z,17.60
2022-08-21T06:41:24.161Z,17.80
2022-08-21T06:43:58.183Z,18.00
2022-08-21T06:46:29.568Z,18.10
2022-08-21T06:48:59.200Z,18.40
2022-08-21T06:51:28.136Z,18.70
2022-08-21T06:53:57.156Z,19.00
2022-08-21T06:56:28.004Z,19.10
2022-08-21T06:58:58.270Z,19.10
2022-08-21T07:01:28.633Z,19.00
2022-08-21T07:03:57.372Z,18.90
2022-08-21T07:06:26.071Z,19.00
2022-08-21T07:08:54.587Z,19.00
2022-08-21T07:11:27.986Z,19.10
2022-08-21T07:13:59.481Z,19.20
2022-08-21T07:16:28.009Z,19.30
2022-08-21T07:18:56.584Z,19.40
2022-08-21T07:21:26.316Z,19.40
2022-08-21T07:23:55.282Z,19.50
2022-08-21T07:26:25.378Z,19.40
2022-08-21T07:28:54.332Z,19.50
2022-08-21T07:31:26.061Z,19.60
2022-08-21T07:33:55.192Z,19.80
2022-08-21T07:36:23.704Z,20.00
2022-08-21T07:38:52.922Z,20.10
2022-08-21T07:41:23.345Z,20.30
2022-08-21T07:43:52.860Z,20.50
2022-08-21T07:46:23.294Z,20.70
2022-08-21T07:48:53.769Z,21.00
2022-08-21T07:51:26.568Z,21.10
2022-08-21T07:53:57.015Z,21.20
2022-08-21T07:56:25.470Z,21.30
2022-08-21T07:58:54.181Z,21.40
2022-08-21T08:01:24.204Z,21.30
2022-08-21T08:03:53.225Z,21.20
2022-08-21T08:06:21.705Z,21.10
2022-08-21T08:08:50.235Z,21.20
2022-08-21T08:11:18.933Z,21.40
2022-08-21T08:13:51.139Z,21.60
2022-08-21T08:16:20.009Z,21.70
2022-08-21T08:18:49.894Z,21.90
2022-08-21T08:21:19.866Z,22.00
2022-08-21T08:23:48.350Z,22.20
2022-08-21T08:26:17.708Z,22.40
2022-08-21T08:28:47.731Z,22.40
2022-08-21T08:31:16.343Z,22.50
2022-08-21T08:33:45.076Z,22.50
2022-08-21T08:36:20.017Z,22.60
2022-08-21T08:38:50.065Z,22.70
2022-08-21T08:41:23.047Z,22.60
2022-08-21T08:43:54.855Z,22.30
2022-08-21T08:46:34.575Z,22.10
2022-08-21T08:49:08.556Z,21.80
2022-08-21T08:51:44.598Z,21.60
2022-08-21T08:54:17.801Z,21.30
2022-08-21T08:56:47.666Z,21.20
2022-08-21T08:59:20.279Z,21.00
2022-08-21T09:01:49.315Z,21.00
2022-08-21T09:04:23.350Z,21.00
2022-08-21T09:07:14.974Z,20.90
2022-08-21T09:09:57.898Z,20.90
2022-08-21T09:12:35.791Z,20.90
2022-08-21T09:15:13.746Z,21.00
2022-08-21T09:18:00.664Z,21.10
2022-08-21T09:20:41.311Z,21.20
2022-08-21T09:23:24.919Z,21.40
2022-08-21T09:26:00.329Z,21.70
2022-08-21T09:28:28.834Z,22.20
2022-08-21T09:31:03.590Z,22.50
2022-08-21T09:33:32.419Z,22.80
2022-08-21T09:36:00.795Z,23.10
2022-08-21T09:38:34.191Z,23.10
2022-08-21T09:41:06.748Z,23.30
2022-08-21T09:43:35.994Z,23.50
2022-08-21T09:46:08.784Z,23.80
2022-08-21T09:48:46.989Z,24.10
2022-08-21T09:51:18.488Z,24.40
2022-08-21T09:53:51.892Z,24.80
2022-08-21T09:56:46.682Z,25.10
2022-08-21T09:59:36.050Z,25.50
2022-08-21T10:02:29.240Z,25.80
2022-08-21T10:05:01.179Z,25.90
2022-08-21T10:07:31.749Z,26.00
2022-08-21T10:10:08.636Z,26.20
2022-08-21T10:12:47.695Z,26.50
2022-08-21T10:15:22.518Z,26.60
2022-08-21T10:18:00.148Z,26.70
2022-08-21T10:20:37.728Z,26.80
2022-08-21T10:23:19.468Z,26.70
2022-08-21T10:26:13.935Z,26.50
2022-08-21T10:28:53.418Z,26.40
2022-08-21T10:31:34.801Z,26.40
2022-08-21T10:34:15.958Z,26.20
2022-08-21T10:37:10.006Z,25.70
2022-08-21T10:39:47.306Z,25.00
2022-08-21T10:42:33.988Z,24.60
2022-08-21T10:45:16.142Z,24.20
2022-08-21T10:47:52.895Z,24.00
2022-08-21T10:50:32.967Z,23.90
2022-08-21T10:53:38.412Z,23.80
2022-08-21T10:56:16.791Z,23.80
2022-08-21T10:58:59.370Z,23.70
2022-08-21T11:01:32.251Z,23.70
2022-08-21T11:04:12.940Z,23.80
2022-08-21T11:06:47.746Z,23.90
2022-08-21T11:09:19.884Z,24.10
2022-08-21T11:11:59.558Z,24.20
2022-08-21T11:14:52.085Z,24.40
2022-08-21T11:17:26.716Z,24.50
2022-08-21T11:20:01.584Z,24.60
2022-08-21T11:22:37.752Z,24.70
2022-08-21T11:25:11.771Z,24.80
2022-08-21T11:27:45.232Z,25.00
2022-08-21T11:30:15.417Z,25.00
2022-08-21T11:33:14.594Z,25.20
2022-08-21T11:35:50.128Z,25.70
2022-08-21T11:38:29.150Z,26.00
2022-08-21T11:41:19.557Z,26.20
2022-08-21T11:43:51.805Z,26.20
2022-08-21T11:46:33.268Z,26.20
2022-08-21T11:49:25.664Z,26.20
2022-08-21T11:52:01.313Z,26.30
2022-08-21T11:54:36.172Z,26.10
2022-08-21T11:57:09.018Z,25.60
2022-08-21T11:59:42.862Z,25.30
2022-08-21T12:02:17.853Z,25.00
2022-08-21T12:04:49.597Z,24.70
2022-08-21T12:07:30.920Z,24.60
2022-08-21T12:10:00.977Z,24.60
2022-08-21T12:12:31.433Z,24.60
2022-08-21T12:15:25.477Z,24.70
2022-08-21T12:17:58.516Z,24.90
2022-08-21T12:20:50.533Z,25.10
2022-08-21T12:23:27.769Z,25.30
2022-08-21T12:26:12.667Z,25.40
2022-08-21T12:28:42.215Z,25.50
2022-08-21T12:31:26.694Z,25.60
2022-08-21T12:34:01.307Z,25.80
2022-08-21T12:36:42.404Z,25.90
2022-08-21T12:39:18.855Z,26.00
2022-08-21T12:41:52.356Z,26.10
2022-08-21T12:44:30.479Z,26.20
2022-08-21T12:47:04.435Z,26.20
2022-08-21T12:49:37.206Z,26.30
2022-08-21T12:52:13.390Z,26.40
2022-08-21T12:54:44.635Z,26.50
2022-08-21T12:57:22.168Z,26.60
2022-08-21T12:59:55.595Z,26.70
2022-08-21T13:02:29.092Z,26.90
2022-08-21T13:05:00.060Z,27.00
2022-08-21T13:07:31.969Z,27.00
2022-08-21T13:10:05.307Z,27.10
2022-08-21T13:12:34.946Z,27.10
2022-08-21T13:15:09.150Z,27.40
2022-08-21T13:17:42.015Z,27.40
2022-08-21T13:20:21.746Z,27.50
2022-08-21T13:22:50.179Z,27.60
2022-08-21T13:25:21.083Z,27.60
2022-08-21T13:28:02.297Z,27.70
2022-08-21T13:30:31.578Z,27.50
2022-08-21T13:33:12.828Z,27.30
2022-08-21T13:36:06.711Z,27.00
2022-08-21T13:38:37.730Z,26.90
2022-08-21T13:41:10.770Z,26.80
2022-08-21T13:43:39.708Z,26.60
2022-08-21T13:46:12.693Z,26.50
2022-08-21T13:48:41.540Z,26.60
2022-08-21T13:51:12.637Z,26.70
2022-08-21T13:53:52.313Z,26.70
2022-08-21T13:56:26.683Z,26.90
2022-08-21T13:58:56.691Z,26.90
2022-08-21T14:01:29.497Z,27.00
2022-08-21T14:04:03.418Z,27.10
2022-08-21T14:06:37.220Z,27.30
2022-08-21T14:09:14.569Z,27.40
2022-08-21T14:11:43.207Z,27.50
2022-08-21T14:14:22.496Z,27.50
2022-08-21T14:16:57.563Z,27.50
2022-08-21T14:19:29.613Z,27.60
2022-08-21T14:21:59.650Z,27.60
2022-08-21T14:24:30.512Z,27.60
2022-08-21T14:27:04.299Z,27.50
2022-08-21T14:29:37.677Z,27.40
2022-08-21T14:32:25.184Z,27.20
2022-08-21T14:34:54.953Z,27.20
2022-08-21T14:37:26.644Z,27.20
2022-08-21T14:39:55.241Z,27.10
2022-08-21T14:42:23.905Z,27.10
2022-08-21T14:44:53.015Z,27.20
2022-08-21T14:47:21.534Z,27.30
2022-08-21T14:49:50.058Z,27.30
2022-08-21T14:52:18.888Z,27.30
2022-08-21T14:54:48.813Z,27.30
2022-08-21T14:57:17.352Z,27.40
2022-08-21T14:59:45.865Z,27.40
2022-08-21T15:02:14.390Z,27.40
2022-08-21T15:04:43.644Z,27.40
2022-08-21T15:07:12.095Z,27.40
2022-08-21T15:09:40.654Z,27.40
2022-08-21T15:12:11.875Z,27.50
2022-08-21T15:14:42.321Z,27.40
2022-08-21T15:17:13.160Z,27.30
2022-08-21T15:19:42.199Z,27.20
2022-08-21T15:22:18.890Z,27.20
2022-08-21T15:24:47.633Z,27.10
2022-08-21T15:27:20.076Z,27.00
2022-08-21T15:29:48.691Z,27.00
2022-08-21T15:32:20.838Z,26.90
2022-08-21T15:34:49.318Z,26.90
2022-08-21T15:37:18.003Z,27.00
2022-08-21T15:39:52.285Z,27.00
2022-08-21T15:42:27.766Z,27.00
2022-08-21T15:44:57.752Z,27.00
2022-08-21T15:47:31.355Z,27.10
2022-08-21T15:49:59.931Z,27.10
2022-08-21T15:52:28.526Z,27.00
2022-08-21T15:54:56.890Z,26.90
2022-08-21T15:57:27.715Z,26.90
2022-08-21T15:59:59.586Z,26.80
2022-08-21T16:02:29.927Z,26.80
2022-08-21T16:04:59.310Z,26.80
2022-08-21T16:07:27.911Z,26.80
2022-08-21T16:09:56.426Z,26.80
2022-08-21T16:12:29.376Z,26.80
2022-08-21T16:14:57.809Z,26.80
2022-08-21T16:17:30.259Z,26.90
2022-08-21T16:19:59.827Z,26.90
2022-08-21T16:22:31.771Z,26.90
2022-08-21T16:25:12.857Z,26.90
2022-08-21T16:27:45.483Z,26.80
2022-08-21T16:30:15.498Z,26.80
2022-08-21T16:32:44.732Z,26.80
2022-08-21T16:35:16.053Z,26.80
2022-08-21T16:37:44.776Z,26.80
2022-08-21T16:40:14.253Z,26.80
2022-08-21T16:42:45.221Z,26.70
2022-08-21T16:45:15.513Z,26.70
2022-08-21T16:47:44.810Z,26.60
2022-08-21T16:50:23.275Z,26.50
2022-08-21T16:52:52.132Z,26.50
2022-08-21T16:55:20.823Z,26.50
2022-08-21T16:57:50.948Z,26.40
2022-08-21T17:00:19.485Z,26.40
2022-08-21T17:02:50.659Z,26.40
2022-08-21T17:05:19.256Z,26.30
2022-08-21T17:07:47.983Z,26.30
2022-08-21T17:10:17.455Z,26.30
2022-08-21T17:12:51.519Z,26.30
2022-08-21T17:15:25.085Z,26.30
2022-08-21T17:17:54.060Z,26.20
2022-08-21T17:20:22.768Z,26.20
2022-08-21T17:22:51.588Z,26.30
2022-08-21T17:25:20.896Z,26.60
2022-08-21T17:27:50.789Z,27.40
2022-08-21T17:30:22.528Z,28.30
2022-08-21T17:32:53.990Z,29.20
2022-08-21T17:35:23.172Z,29.80
2022-08-21T17:37:53.489Z,30.40
2022-08-21T17:40:22.359Z,30.80
2022-08-21T17:42:50.951Z,31.00
2022-08-21T17:45:22.211Z,31.00
2022-08-21T17:47:50.679Z,30.80
2022-08-21T17:50:22.688Z,30.30
2022-08-21T17:52:52.382Z,29.90
2022-08-21T17:55:21.753Z,29.60
2022-08-21T17:57:53.279Z,29.50
2022-08-21T18:00:26.291Z,29.40
2022-08-21T18:03:01.308Z,29.50
2022-08-21T18:05:30.201Z,29.40
2022-08-21T18:07:59.058Z,29.20
2022-08-21T18:10:27.689Z,28.70
2022-08-21T18:12:56.825Z,27.90
2022-08-21T18:15:26.816Z,27.20
2022-08-21T18:17:55.328Z,26.50
2022-08-21T18:20:25.211Z,25.90
2022-08-21T18:22:53.739Z,25.30
2022-08-21T18:25:22.600Z,24.80
2022-08-21T18:27:52.698Z,24.40
2022-08-21T18:30:24.444Z,24.00
2022-08-21T18:32:56.200Z,23.70
2022-08-21T18:35:25.165Z,23.30
2022-08-21T18:37:53.701Z,23.10
2022-08-21T18:40:22.645Z,22.80
2022-08-21T18:42:55.486Z,22.60
2022-08-21T18:45:27.388Z,22.30
2022-08-21T18:47:59.738Z,22.10
2022-08-21T18:50:30.565Z,21.90
2022-08-21T18:52:58.994Z,21.70
2022-08-21T18:55:28.240Z,21.60
2022-08-21T18:57:58.089Z,21.50
2022-08-21T19:00:30.423Z,21.40
2022-08-21T19:03:01.018Z,21.20
2022-08-21T19:05:29.760Z,21.10
2022-08-21T19:07:58.827Z,21.00
2022-08-21T19:10:29.524Z,20.80
2022-08-21T19:13:01.214Z,20.70
2022-08-21T19:15:30.074Z,20.60
2022-08-21T19:18:00.442Z,20.50
2022-08-21T19:20:34.457Z,20.40
2022-08-21T19:23:06.461Z,20.30
2022-08-21T19:25:37.342Z,20.10
2022-08-21T19:28:14.265Z,20.00
2022-08-21T19:30:48.002Z,19.90
2022-08-21T19:33:23.705Z,19.80
2022-08-21T19:35:53.636Z,19.80
2022-08-21T19:38:22.771Z,19.60
2022-08-21T19:40:51.902Z,19.60
2022-08-21T19:43:22.419Z,19.50
2022-08-21T19:45:54.539Z,19.40
2022-08-21T19:48:24.958Z,19.30
2022-08-21T19:50:55.295Z,19.20
2022-08-21T19:53:23.890Z,19.10
2022-08-21T19:55:52.452Z,19.00
2022-08-21T19:58:33.378Z,18.90
2022-08-21T20:01:02.077Z,18.80
2022-08-21T20:03:32.014Z,18.80
2022-08-21T20:06:00.521Z,18.70
2022-08-21T20:08:29.050Z,18.70
2022-08-21T20:11:02.541Z,18.60
2022-08-21T20:13:34.216Z,18.60
2022-08-21T20:16:06.011Z,18.50
2022-08-21T20:18:38.569Z,18.50
2022-08-21T20:21:11.020Z,18.50
2022-08-21T20:26:27.954Z,18.40
2022-08-21T20:28:57.927Z,18.30
2022-08-21T20:31:27.963Z,18.20
2022-08-21T20:33:58.073Z,18.20
2022-08-21T20:36:26.949Z,18.10
2022-08-21T20:38:55.440Z,18.00
2022-08-21T20:41:30.450Z,18.00
2022-08-21T20:44:01.046Z,18.00
2022-08-21T20:46:33.216Z,18.10
2022-08-21T20:49:03.337Z,18.10
2022-08-21T20:51:37.331Z,18.10
2022-08-21T20:54:14.293Z,18.20
2022-08-21T20:56:50.890Z,18.20
2022-08-21T20:59:32.278Z,18.20
2022-08-21T21:02:11.934Z,18.20
2022-08-21T21:04:49.467Z,18.20
2022-08-21T21:07:27.504Z,18.10
2022-08-21T21:09:58.685Z,18.00
2022-08-21T21:12:32.529Z,17.90
2022-08-21T21:15:07.202Z,17.70
2022-08-21T21:17:41.369Z,17.60
2022-08-21T21:20:17.141Z,17.50
2022-08-21T21:22:52.200Z,17.40
2022-08-21T21:25:39.937Z,17.30
2022-08-21T21:31:00.676Z,17.30
2022-08-21T21:33:32.512Z,17.20
2022-08-21T21:36:13.680Z,17.20
2022-08-21T21:38:51.580Z,17.20
2022-08-21T21:41:28.913Z,17.20
2022-08-21T21:44:10.487Z,17.10
2022-08-21T21:46:48.668Z,17.00
2022-08-21T21:49:49.647Z,17.00
2022-08-21T21:52:36.456Z,16.90
2022-08-21T21:55:23.744Z,16.80
2022-08-21T21:58:18.002Z,16.80
2022-08-21T22:00:53.600Z,16.80
2022-08-21T22:03:27.301Z,16.90
2022-08-21T22:06:01.605Z,16.90
2022-08-21T22:08:48.738Z,16.90
2022-08-21T22:11:29.313Z,16.90
2022-08-21T22:14:08.592Z,16.90
2022-08-21T22:16:37.988Z,16.90
2022-08-21T22:19:14.928Z,16.90
2022-08-21T22:21:50.682Z,17.00
2022-08-21T22:24:27.709Z,17.00
2022-08-21T22:27:01.738Z,17.00
2022-08-21T22:29:48.475Z,17.10
2022-08-21T22:32:25.781Z,17.20
2022-08-21T22:35:15.515Z,17.10
2022-08-21T22:37:47.719Z,17.10
2022-08-21T22:40:28.056Z,17.00
2022-08-21T22:43:00.581Z,16.90
2022-08-21T22:45:32.622Z,16.90
2022-08-21T22:48:11.076Z,16.80
2022-08-21T22:50:43.221Z,16.80
2022-08-21T22:53:12.557Z,16.70
2022-08-21T22:55:53.696Z,16.60
2022-08-21T22:58:26.299Z,16.50
2022-08-21T23:00:58.465Z,16.50
2022-08-21T23:06:27.295Z,16.40
2022-08-21T23:08:56.122Z,16.30
2022-08-21T23:11:30.439Z,16.20
2022-08-21T23:14:00.494Z,16.20
2022-08-21T23:16:47.223Z,16.20
2022-08-21T23:19:27.499Z,16.10
2022-08-21T23:25:04.430Z,16.00
2022-08-21T23:27:45.334Z,16.00
2022-08-21T23:30:19.271Z,16.00
2022-08-21T23:33:21.513Z,16.00
2022-08-21T23:36:12.542Z,16.00
2022-08-21T23:38:54.168Z,16.00
2022-08-21T23:41:34.699Z,15.90
2022-08-21T23:44:16.082Z,15.90
2022-08-21T23:46:56.923Z,15.90
2022-08-21T23:52:45.137Z,16.00
2022-08-21T23:55:28.323Z,16.00
2022-08-21T23:58:14.323Z,15.90
